sensor_id;sensor_type;location;lat;lon;timestamp;temperature;humidity
2639;DHT22;1329;51.384;7.122;2023-08-07T00:01:42;14.80;99.90
2639;DHT22;1329;51.384;7.122;2023-08-07T00:04:09;14.80;99.90
2639;DHT22;1329;51.384;7.122;2023-08-07T00:06:36;14.80;99.90
2639;DHT22;1329;51.384;7.122;2023-08-07T00:09:03;14.80;99.90
2639;DHT22;1329;51.384;7.122;2023-08-07T00:11:31;14.80;99.90
2639;DHT22;1329;51.384;7.122;2023-08-07T00:13:58;14.80;99.90
2639;DHT22;1329;51.384;7.122;2023-08-07T00:16:26;14.80;99.90
2639;DHT22;1329;51.384;7.122;2023-08-07T00:18:53;14.80;99.90
2639;DHT22;1329;51.384;7.122;2023-08-07T00:21:21;14.80;99.90
2639;DHT22;1329;51.384;7.122;2023-08-07T00:23:49;14.80;99.90
2639;DHT22;1329;51.384;7.122;2023-08-07T00:26:16;14.80;99.90
2639;DHT22;1329;51.384;7.122;2023-08-07T00:28:44;14.80;99.90
2639;DHT22;1329;51.384;7.122;2023-08-07T00:31:11;14.80;99.90
2639;DHT22;1329;51.384;7.122;2023-08-07T00:33:38;14.80;99.90
2639;DHT22;1329;51.384;7.122;2023-08-07T00:36:05;14.80;99.90
2639;DHT22;1329;51.384;7.122;2023-08-07T00:38:32;14.80;99.90
2639;DHT22;1329;51.384;7.122;2023-08-07T00:40:59;14.80;99.90
2639;DHT22;1329;51.384;7.122;2023-08-07T00:43:27;14.80;99.90
2639;DHT22;1329;51.384;7.122;2023-08-07T00:45:55;14.80;99.90
2639;DHT22;1329;51.384;7.122;2023-08-07T00:48:22;14.80;99.90
2639;DHT22;1329;51.384;7.122;2023-08-07T00:50:49;14.80;99.90
2639;DHT22;1329;51.384;7.122;2023-08-07T00:53:17;14.80;99.90
2639;DHT22;1329;51.384;7.122;2023-08-07T00:55:45;14.80;99.90
2639;DHT22;1329;51.384;7.122;2023-08-07T00:58:13;14.80;99.90
2639;DHT22;1329;51.384;7.122;2023-08-07T01:00:40;14.80;99.90
2639;DHT22;1329;51.384;7.122;2023-08-07T01:03:11;14.80;99.90
2639;DHT22;1329;51.384;7.122;2023-08-07T01:05:39;14.90;99.90
2639;DHT22;1329;51.384;7.122;2023-08-07T01:08:06;14.80;99.90
2639;DHT22;1329;51.384;7.122;2023-08-07T01:10:42;14.80;99.90
2639;DHT22;1329;51.384;7.122;2023-08-07T01:13:20;14.80;99.90
2639;DHT22;1329;51.384;7.122;2023-08-07T01:15:55;14.80;99.90
2639;DHT22;1329;51.384;7.122;2023-08-07T01:18:28;14.80;99.90
2639;DHT22;1329;51.384;7.122;2023-08-07T01:20:56;14.80;99.90
2639;DHT22;1329;51.384;7.122;2023-08-07T01:23:24;14.80;99.90
2639;DHT22;1329;51.384;7.122;2023-08-07T01:25:51;14.80;99.90
2639;DHT22;1329;51.384;7.122;2023-08-07T01:28:25;14.80;99.90
2639;DHT22;1329;51.384;7.122;2023-08-07T01:30:59;14.90;99.90
2639;DHT22;1329;51.384;7.122;2023-08-07T01:33:34;14.80;99.90
2639;DHT22;1329;51.384;7.122;2023-08-07T01:36:16;14.80;99.90
2639;DHT22;1329;51.384;7.122;2023-08-07T01:38:45;14.80;99.90
2639;DHT22;1329;51.384;7.122;2023-08-07T01:41:15;14.80;99.90
2639;DHT22;1329;51.384;7.122;2023-08-07T01:43:42;14.80;99.90
2639;DHT22;1329;51.384;7.122;2023-08-07T01:46:10;14.80;99.90
2639;DHT22;1329;51.384;7.122;2023-08-07T01:48:37;14.80;99.90
2639;DHT22;1329;51.384;7.122;2023-08-07T01:51:04;14.80;99.90
2639;DHT22;1329;51.384;7.122;2023-08-07T01:53:31;14.80;99.90
2639;DHT22;1329;51.384;7.122;2023-08-07T01:55:59;14.80;99.90
2639;DHT22;1329;51.384;7.122;2023-08-07T01:58:26;14.80;99.90
2639;DHT22;1329;51.384;7.122;2023-08-07T02:00:53;14.80;99.90
2639;DHT22;1329;51.384;7.122;2023-08-07T02:03:20;14.80;99.90
2639;DHT22;1329;51.384;7.122;2023-08-07T02:05:47;14.80;99.90
2639;DHT22;1329;51.384;7.122;2023-08-07T02:08:14;14.70;99.90
2639;DHT22;1329;51.384;7.122;2023-08-07T02:10:41;14.80;99.90
2639;DHT22;1329;51.384;7.122;2023-08-07T02:13:09;14.80;99.90
2639;DHT22;1329;51.384;7.122;2023-08-07T02:15:39;14.70;99.90
2639;DHT22;1329;51.384;7.122;2023-08-07T02:18:06;14.70;99.90
2639;DHT22;1329;51.384;7.122;2023-08-07T02:20:33;14.80;99.90
2639;DHT22;1329;51.384;7.122;2023-08-07T02:22:59;14.80;99.90
2639;DHT22;1329;51.384;7.122;2023-08-07T02:25:27;14.70;99.90
2639;DHT22;1329;51.384;7.122;2023-08-07T02:27:53;14.80;99.90
2639;DHT22;1329;51.384;7.122;2023-08-07T02:30:22;14.80;99.90
2639;DHT22;1329;51.384;7.122;2023-08-07T02:32:49;14.80;99.90
2639;DHT22;1329;51.384;7.122;2023-08-07T02:35:15;14.70;99.90
2639;DHT22;1329;51.384;7.122;2023-08-07T02:37:42;14.70;99.90
2639;DHT22;1329;51.384;7.122;2023-08-07T02:40:10;14.70;99.90
2639;DHT22;1329;51.384;7.122;2023-08-07T02:42:40;14.80;99.90
2639;DHT22;1329;51.384;7.122;2023-08-07T02:45:08;14.70;99.90
2639;DHT22;1329;51.384;7.122;2023-08-07T02:47:36;14.70;99.90
2639;DHT22;1329;51.384;7.122;2023-08-07T02:50:04;14.70;99.90
2639;DHT22;1329;51.384;7.122;2023-08-07T02:52:31;14.70;99.90
2639;DHT22;1329;51.384;7.122;2023-08-07T02:54:58;14.70;99.90
2639;DHT22;1329;51.384;7.122;2023-08-07T02:57:25;14.70;99.90
2639;DHT22;1329;51.384;7.122;2023-08-07T02:59:52;14.70;99.90
2639;DHT22;1329;51.384;7.122;2023-08-07T03:02:19;14.70;99.90
2639;DHT22;1329;51.384;7.122;2023-08-07T03:04:47;14.70;99.90
2639;DHT22;1329;51.384;7.122;2023-08-07T03:07:14;14.70;99.90
2639;DHT22;1329;51.384;7.122;2023-08-07T03:09:41;14.70;99.90
2639;DHT22;1329;51.384;7.122;2023-08-07T03:12:08;14.70;99.90
2639;DHT22;1329;51.384;7.122;2023-08-07T03:14:35;14.70;99.90
2639;DHT22;1329;51.384;7.122;2023-08-07T03:17:02;14.70;99.90
2639;DHT22;1329;51.384;7.122;2023-08-07T03:19:29;14.70;99.90
2639;DHT22;1329;51.384;7.122;2023-08-07T03:21:57;14.70;99.90
2639;DHT22;1329;51.384;7.122;2023-08-07T03:24:24;14.70;99.90
2639;DHT22;1329;51.384;7.122;2023-08-07T03:26:51;14.70;99.90
2639;DHT22;1329;51.384;7.122;2023-08-07T03:29:18;14.70;99.90
2639;DHT22;1329;51.384;7.122;2023-08-07T03:31:45;14.70;99.90
2639;DHT22;1329;51.384;7.122;2023-08-07T03:34:12;14.70;99.90
2639;DHT22;1329;51.384;7.122;2023-08-07T03:36:39;14.70;99.90
2639;DHT22;1329;51.384;7.122;2023-08-07T03:39:08;14.70;99.90
2639;DHT22;1329;51.384;7.122;2023-08-07T03:41:35;14.70;99.90
2639;DHT22;1329;51.384;7.122;2023-08-07T03:44:02;14.70;99.90
2639;DHT22;1329;51.384;7.122;2023-08-07T03:46:30;14.70;99.90
2639;DHT22;1329;51.384;7.122;2023-08-07T03:48:57;14.60;99.90
2639;DHT22;1329;51.384;7.122;2023-08-07T03:51:24;14.70;99.90
2639;DHT22;1329;51.384;7.122;2023-08-07T03:53:51;14.60;99.90
2639;DHT22;1329;51.384;7.122;2023-08-07T03:56:19;14.60;99.90
2639;DHT22;1329;51.384;7.122;2023-08-07T03:58:46;14.60;99.90
2639;DHT22;1329;51.384;7.122;2023-08-07T04:01:15;14.60;99.90
2639;DHT22;1329;51.384;7.122;2023-08-07T04:03:42;14.60;99.90
2639;DHT22;1329;51.384;7.122;2023-08-07T04:06:09;14.60;99.90
2639;DHT22;1329;51.384;7.122;2023-08-07T04:08:41;14.60;99.90
2639;DHT22;1329;51.384;7.122;2023-08-07T04:11:08;14.60;99.90
2639;DHT22;1329;51.384;7.122;2023-08-07T04:13:40;14.60;99.90
2639;DHT22;1329;51.384;7.122;2023-08-07T04:16:07;14.60;99.90
2639;DHT22;1329;51.384;7.122;2023-08-07T04:18:33;14.60;99.90
2639;DHT22;1329;51.384;7.122;2023-08-07T04:21:01;14.60;99.90
2639;DHT22;1329;51.384;7.122;2023-08-07T04:23:31;14.60;99.90
2639;DHT22;1329;51.384;7.122;2023-08-07T04:25:58;14.60;99.90
2639;DHT22;1329;51.384;7.122;2023-08-07T04:28:29;14.60;99.90
2639;DHT22;1329;51.384;7.122;2023-08-07T04:30:59;14.60;99.90
2639;DHT22;1329;51.384;7.122;2023-08-07T04:33:29;14.60;99.90
2639;DHT22;1329;51.384;7.122;2023-08-07T04:35:56;14.60;99.90
2639;DHT22;1329;51.384;7.122;2023-08-07T04:38:23;14.60;99.90
2639;DHT22;1329;51.384;7.122;2023-08-07T04:40:51;14.60;99.90
2639;DHT22;1329;51.384;7.122;2023-08-07T04:43:18;14.60;99.90
2639;DHT22;1329;51.384;7.122;2023-08-07T04:45:46;14.60;99.90
2639;DHT22;1329;51.384;7.122;2023-08-07T04:48:15;14.60;99.90
2639;DHT22;1329;51.384;7.122;2023-08-07T04:50:43;14.60;99.90
2639;DHT22;1329;51.384;7.122;2023-08-07T04:53:10;14.60;99.90
2639;DHT22;1329;51.384;7.122;2023-08-07T04:55:38;14.60;99.90
2639;DHT22;1329;51.384;7.122;2023-08-07T04:58:04;14.60;99.90
2639;DHT22;1329;51.384;7.122;2023-08-07T05:00:31;14.60;99.90
2639;DHT22;1329;51.384;7.122;2023-08-07T05:02:58;14.60;99.90
2639;DHT22;1329;51.384;7.122;2023-08-07T05:05:28;14.60;99.90
2639;DHT22;1329;51.384;7.122;2023-08-07T05:07:58;14.60;99.90
2639;DHT22;1329;51.384;7.122;2023-08-07T05:10:25;14.70;99.90
2639;DHT22;1329;51.384;7.122;2023-08-07T05:12:52;14.60;99.90
2639;DHT22;1329;51.384;7.122;2023-08-07T05:15:21;14.60;99.90
2639;DHT22;1329;51.384;7.122;2023-08-07T05:17:48;14.60;99.90
2639;DHT22;1329;51.384;7.122;2023-08-07T05:20:15;14.60;99.90
2639;DHT22;1329;51.384;7.122;2023-08-07T05:22:43;14.60;99.90
2639;DHT22;1329;51.384;7.122;2023-08-07T05:25:11;14.60;99.90
2639;DHT22;1329;51.384;7.122;2023-08-07T05:27:41;14.60;99.90
2639;DHT22;1329;51.384;7.122;2023-08-07T05:30:08;14.60;99.90
2639;DHT22;1329;51.384;7.122;2023-08-07T05:32:36;14.60;99.90
2639;DHT22;1329;51.384;7.122;2023-08-07T05:35:04;14.60;99.90
2639;DHT22;1329;51.384;7.122;2023-08-07T05:37:32;14.60;99.90
2639;DHT22;1329;51.384;7.122;2023-08-07T05:40:01;14.60;99.90
2639;DHT22;1329;51.384;7.122;2023-08-07T05:42:28;14.60;99.90
2639;DHT22;1329;51.384;7.122;2023-08-07T05:44:55;14.50;99.90
2639;DHT22;1329;51.384;7.122;2023-08-07T05:47:22;14.50;99.90
2639;DHT22;1329;51.384;7.122;2023-08-07T05:49:49;14.50;99.90
2639;DHT22;1329;51.384;7.122;2023-08-07T05:52:17;14.50;99.90
2639;DHT22;1329;51.384;7.122;2023-08-07T05:54:46;14.50;99.90
2639;DHT22;1329;51.384;7.122;2023-08-07T05:57:15;14.50;99.90
2639;DHT22;1329;51.384;7.122;2023-08-07T05:59:42;14.50;99.90
2639;DHT22;1329;51.384;7.122;2023-08-07T06:02:09;14.50;99.90
2639;DHT22;1329;51.384;7.122;2023-08-07T06:04:37;14.50;99.90
2639;DHT22;1329;51.384;7.122;2023-08-07T06:07:05;14.50;99.90
2639;DHT22;1329;51.384;7.122;2023-08-07T06:09:32;14.50;99.90
2639;DHT22;1329;51.384;7.122;2023-08-07T06:11:59;14.50;99.90
2639;DHT22;1329;51.384;7.122;2023-08-07T06:14:28;14.50;99.90
2639;DHT22;1329;51.384;7.122;2023-08-07T06:16:55;14.50;99.90
2639;DHT22;1329;51.384;7.122;2023-08-07T06:19:23;14.50;99.90
2639;DHT22;1329;51.384;7.122;2023-08-07T06:21:52;14.50;99.90
2639;DHT22;1329;51.384;7.122;2023-08-07T06:24:19;14.50;99.90
2639;DHT22;1329;51.384;7.122;2023-08-07T06:26:46;14.50;99.90
2639;DHT22;1329;51.384;7.122;2023-08-07T06:29:13;14.50;99.90
2639;DHT22;1329;51.384;7.122;2023-08-07T06:31:42;14.50;99.90
2639;DHT22;1329;51.384;7.122;2023-08-07T06:34:09;14.50;99.90
2639;DHT22;1329;51.384;7.122;2023-08-07T06:36:36;14.50;99.90
2639;DHT22;1329;51.384;7.122;2023-08-07T06:39:03;14.50;99.90
2639;DHT22;1329;51.384;7.122;2023-08-07T06:41:30;14.50;99.90
2639;DHT22;1329;51.384;7.122;2023-08-07T06:43:57;14.60;99.90
2639;DHT22;1329;51.384;7.122;2023-08-07T06:46:24;14.50;99.90
2639;DHT22;1329;51.384;7.122;2023-08-07T06:48:54;14.60;99.90
2639;DHT22;1329;51.384;7.122;2023-08-07T06:51:21;14.60;99.90
2639;DHT22;1329;51.384;7.122;2023-08-07T06:53:48;14.60;99.90
2639;DHT22;1329;51.384;7.122;2023-08-07T06:56:15;14.60;99.90
2639;DHT22;1329;51.384;7.122;2023-08-07T06:58:42;14.70;99.90
2639;DHT22;1329;51.384;7.122;2023-08-07T07:01:09;14.60;99.90
2639;DHT22;1329;51.384;7.122;2023-08-07T07:03:36;14.70;99.90
2639;DHT22;1329;51.384;7.122;2023-08-07T07:06:05;14.70;99.90
2639;DHT22;1329;51.384;7.122;2023-08-07T07:08:32;14.70;99.90
2639;DHT22;1329;51.384;7.122;2023-08-07T07:10:58;14.70;99.90
2639;DHT22;1329;51.384;7.122;2023-08-07T07:13:26;14.70;99.90
2639;DHT22;1329;51.384;7.122;2023-08-07T07:15:53;14.70;99.90
2639;DHT22;1329;51.384;7.122;2023-08-07T07:18:21;14.70;99.90
2639;DHT22;1329;51.384;7.122;2023-08-07T07:20:47;14.80;99.90
2639;DHT22;1329;51.384;7.122;2023-08-07T07:23:16;14.80;99.90
2639;DHT22;1329;51.384;7.122;2023-08-07T07:25:43;14.80;99.90
2639;DHT22;1329;51.384;7.122;2023-08-07T07:28:10;14.80;99.90
2639;DHT22;1329;51.384;7.122;2023-08-07T07:30:39;14.80;99.90
2639;DHT22;1329;51.384;7.122;2023-08-07T07:33:06;14.80;99.90
2639;DHT22;1329;51.384;7.122;2023-08-07T07:35:37;14.80;99.90
2639;DHT22;1329;51.384;7.122;2023-08-07T07:38:06;14.80;99.90
2639;DHT22;1329;51.384;7.122;2023-08-07T07:40:35;14.80;99.90
2639;DHT22;1329;51.384;7.122;2023-08-07T07:43:03;14.80;99.90
2639;DHT22;1329;51.384;7.122;2023-08-07T07:45:30;14.90;99.90
2639;DHT22;1329;51.384;7.122;2023-08-07T07:47:59;14.90;99.90
2639;DHT22;1329;51.384;7.122;2023-08-07T07:50:26;14.90;99.90
2639;DHT22;1329;51.384;7.122;2023-08-07T07:52:53;14.90;99.90
2639;DHT22;1329;51.384;7.122;2023-08-07T07:55:20;14.90;99.90
2639;DHT22;1329;51.384;7.122;2023-08-07T07:57:48;14.90;99.90
2639;DHT22;1329;51.384;7.122;2023-08-07T08:00:15;14.90;99.90
2639;DHT22;1329;51.384;7.122;2023-08-07T08:02:44;14.90;99.90
2639;DHT22;1329;51.384;7.122;2023-08-07T08:05:10;15.00;99.90
2639;DHT22;1329;51.384;7.122;2023-08-07T08:07:38;15.00;99.90
2639;DHT22;1329;51.384;7.122;2023-08-07T08:10:07;14.90;99.90
2639;DHT22;1329;51.384;7.122;2023-08-07T08:12:35;14.90;99.90
2639;DHT22;1329;51.384;7.122;2023-08-07T08:15:04;14.90;99.90
2639;DHT22;1329;51.384;7.122;2023-08-07T08:17:32;14.90;99.90
2639;DHT22;1329;51.384;7.122;2023-08-07T08:19:59;15.00;99.90
2639;DHT22;1329;51.384;7.122;2023-08-07T08:22:26;15.00;99.90
2639;DHT22;1329;51.384;7.122;2023-08-07T08:24:53;15.00;99.90
2639;DHT22;1329;51.384;7.122;2023-08-07T08:27:19;15.00;99.90
2639;DHT22;1329;51.384;7.122;2023-08-07T08:29:47;15.00;99.90
2639;DHT22;1329;51.384;7.122;2023-08-07T08:32:15;15.00;99.90
2639;DHT22;1329;51.384;7.122;2023-08-07T08:34:42;15.00;99.90
2639;DHT22;1329;51.384;7.122;2023-08-07T08:37:09;15.00;99.90
2639;DHT22;1329;51.384;7.122;2023-08-07T08:39:36;15.00;99.90
2639;DHT22;1329;51.384;7.122;2023-08-07T08:42:04;15.00;99.90
2639;DHT22;1329;51.384;7.122;2023-08-07T08:44:36;15.00;99.90
2639;DHT22;1329;51.384;7.122;2023-08-07T08:47:03;15.10;99.90
2639;DHT22;1329;51.384;7.122;2023-08-07T08:49:35;15.10;99.90
2639;DHT22;1329;51.384;7.122;2023-08-07T08:52:05;15.10;99.90
2639;DHT22;1329;51.384;7.122;2023-08-07T08:54:33;15.10;99.90
2639;DHT22;1329;51.384;7.122;2023-08-07T08:57:00;15.20;99.90
2639;DHT22;1329;51.384;7.122;2023-08-07T08:59:27;15.20;99.90
2639;DHT22;1329;51.384;7.122;2023-08-07T09:01:54;15.30;99.90
2639;DHT22;1329;51.384;7.122;2023-08-07T09:04:21;15.30;99.90
2639;DHT22;1329;51.384;7.122;2023-08-07T09:06:50;15.40;99.90
2639;DHT22;1329;51.384;7.122;2023-08-07T09:09:20;15.50;99.90
2639;DHT22;1329;51.384;7.122;2023-08-07T09:11:47;15.50;99.90
2639;DHT22;1329;51.384;7.122;2023-08-07T09:14:16;15.60;99.90
2639;DHT22;1329;51.384;7.122;2023-08-07T09:16:44;15.60;99.90
2639;DHT22;1329;51.384;7.122;2023-08-07T09:19:12;15.70;99.90
2639;DHT22;1329;51.384;7.122;2023-08-07T09:21:39;15.80;99.90
2639;DHT22;1329;51.384;7.122;2023-08-07T09:24:08;15.80;99.90
2639;DHT22;1329;51.384;7.122;2023-08-07T09:26:36;15.90;99.90
2639;DHT22;1329;51.384;7.122;2023-08-07T09:29:03;16.00;99.90
2639;DHT22;1329;51.384;7.122;2023-08-07T09:31:30;16.00;99.90
2639;DHT22;1329;51.384;7.122;2023-08-07T09:34:01;16.10;99.90
2639;DHT22;1329;51.384;7.122;2023-08-07T09:36:30;16.10;99.90
2639;DHT22;1329;51.384;7.122;2023-08-07T09:39:00;16.20;99.90
2639;DHT22;1329;51.384;7.122;2023-08-07T09:41:31;16.30;99.90
2639;DHT22;1329;51.384;7.122;2023-08-07T09:43:58;16.40;99.90
2639;DHT22;1329;51.384;7.122;2023-08-07T09:46:25;16.40;99.90
2639;DHT22;1329;51.384;7.122;2023-08-07T09:48:57;16.50;99.90
2639;DHT22;1329;51.384;7.122;2023-08-07T09:51:25;16.50;99.90
2639;DHT22;1329;51.384;7.122;2023-08-07T09:53:52;16.50;99.90
2639;DHT22;1329;51.384;7.122;2023-08-07T09:56:19;16.50;99.90
2639;DHT22;1329;51.384;7.122;2023-08-07T09:58:50;16.50;99.90
2639;DHT22;1329;51.384;7.122;2023-08-07T10:01:20;16.50;99.90
2639;DHT22;1329;51.384;7.122;2023-08-07T10:03:47;16.40;99.90
2639;DHT22;1329;51.384;7.122;2023-08-07T10:06:15;16.30;99.90
2639;DHT22;1329;51.384;7.122;2023-08-07T10:08:43;16.40;99.90
2639;DHT22;1329;51.384;7.122;2023-08-07T10:11:11;16.30;99.90
2639;DHT22;1329;51.384;7.122;2023-08-07T10:13:42;16.30;99.90
2639;DHT22;1329;51.384;7.122;2023-08-07T10:16:11;16.30;99.90
2639;DHT22;1329;51.384;7.122;2023-08-07T10:18:38;16.30;99.90
2639;DHT22;1329;51.384;7.122;2023-08-07T10:21:09;16.30;99.90
2639;DHT22;1329;51.384;7.122;2023-08-07T10:23:37;16.30;99.90
2639;DHT22;1329;51.384;7.122;2023-08-07T10:26:06;16.30;99.90
2639;DHT22;1329;51.384;7.122;2023-08-07T10:28:37;16.40;99.90
2639;DHT22;1329;51.384;7.122;2023-08-07T10:31:06;16.40;99.90
2639;DHT22;1329;51.384;7.122;2023-08-07T10:33:35;16.50;99.90
2639;DHT22;1329;51.384;7.122;2023-08-07T10:36:08;16.50;99.90
2639;DHT22;1329;51.384;7.122;2023-08-07T10:38:36;16.60;99.90
2639;DHT22;1329;51.384;7.122;2023-08-07T10:41:06;16.70;99.90
2639;DHT22;1329;51.384;7.122;2023-08-07T10:43:38;16.60;99.90
2639;DHT22;1329;51.384;7.122;2023-08-07T10:46:08;16.60;99.90
2639;DHT22;1329;51.384;7.122;2023-08-07T10:48:41;16.70;99.90
2639;DHT22;1329;51.384;7.122;2023-08-07T10:51:12;16.70;99.90
2639;DHT22;1329;51.384;7.122;2023-08-07T10:53:41;16.70;99.90
2639;DHT22;1329;51.384;7.122;2023-08-07T10:56:11;16.70;99.90
2639;DHT22;1329;51.384;7.122;2023-08-07T10:58:42;16.70;99.90
2639;DHT22;1329;51.384;7.122;2023-08-07T11:01:22;16.70;99.90
2639;DHT22;1329;51.384;7.122;2023-08-07T11:03:56;16.70;99.90
2639;DHT22;1329;51.384;7.122;2023-08-07T11:06:25;16.60;99.90
2639;DHT22;1329;51.384;7.122;2023-08-07T11:08:53;16.50;99.90
2639;DHT22;1329;51.384;7.122;2023-08-07T11:11:20;16.50;99.90
2639;DHT22;1329;51.384;7.122;2023-08-07T11:13:47;16.40;99.90
2639;DHT22;1329;51.384;7.122;2023-08-07T11:16:14;16.30;99.90
2639;DHT22;1329;51.384;7.122;2023-08-07T11:18:42;16.30;99.90
2639;DHT22;1329;51.384;7.122;2023-08-07T11:21:11;16.20;99.90
2639;DHT22;1329;51.384;7.122;2023-08-07T11:23:41;16.20;99.90
2639;DHT22;1329;51.384;7.122;2023-08-07T11:26:10;16.20;99.90
2639;DHT22;1329;51.384;7.122;2023-08-07T11:28:36;16.20;99.90
2639;DHT22;1329;51.384;7.122;2023-08-07T11:31:03;16.30;99.90
2639;DHT22;1329;51.384;7.122;2023-08-07T11:33:31;16.30;99.90
2639;DHT22;1329;51.384;7.122;2023-08-07T11:35:58;16.30;99.90
2639;DHT22;1329;51.384;7.122;2023-08-07T11:38:31;16.40;99.90
2639;DHT22;1329;51.384;7.122;2023-08-07T11:41:00;16.50;99.90
2639;DHT22;1329;51.384;7.122;2023-08-07T11:43:28;16.60;99.90
2639;DHT22;1329;51.384;7.122;2023-08-07T11:45:56;16.70;99.90
2639;DHT22;1329;51.384;7.122;2023-08-07T11:48:25;16.80;99.90
2639;DHT22;1329;51.384;7.122;2023-08-07T11:50:53;17.00;99.90
2639;DHT22;1329;51.384;7.122;2023-08-07T11:53:20;17.10;99.90
2639;DHT22;1329;51.384;7.122;2023-08-07T11:55:53;17.10;99.90
2639;DHT22;1329;51.384;7.122;2023-08-07T11:58:24;17.20;99.90
2639;DHT22;1329;51.384;7.122;2023-08-07T12:00:51;17.10;99.90
2639;DHT22;1329;51.384;7.122;2023-08-07T12:03:25;17.10;99.90
2639;DHT22;1329;51.384;7.122;2023-08-07T12:05:55;17.00;99.90
2639;DHT22;1329;51.384;7.122;2023-08-07T12:08:23;16.90;99.90
2639;DHT22;1329;51.384;7.122;2023-08-07T12:10:50;16.80;99.90
2639;DHT22;1329;51.384;7.122;2023-08-07T12:13:24;16.80;99.90
2639;DHT22;1329;51.384;7.122;2023-08-07T12:15:54;16.80;99.90
2639;DHT22;1329;51.384;7.122;2023-08-07T12:18:21;16.80;99.90
2639;DHT22;1329;51.384;7.122;2023-08-07T12:20:49;16.80;99.90
2639;DHT22;1329;51.384;7.122;2023-08-07T12:23:20;16.90;99.90
2639;DHT22;1329;51.384;7.122;2023-08-07T12:25:48;17.00;99.90
2639;DHT22;1329;51.384;7.122;2023-08-07T12:28:15;17.00;99.90
2639;DHT22;1329;51.384;7.122;2023-08-07T12:30:45;17.10;99.90
2639;DHT22;1329;51.384;7.122;2023-08-07T12:33:12;17.20;99.90
2639;DHT22;1329;51.384;7.122;2023-08-07T12:35:40;17.20;99.90
2639;DHT22;1329;51.384;7.122;2023-08-07T12:38:07;17.20;99.90
2639;DHT22;1329;51.384;7.122;2023-08-07T12:40:35;17.30;99.90
2639;DHT22;1329;51.384;7.122;2023-08-07T12:43:02;17.40;99.90
2639;DHT22;1329;51.384;7.122;2023-08-07T12:45:29;17.40;99.90
2639;DHT22;1329;51.384;7.122;2023-08-07T12:47:58;17.50;99.90
2639;DHT22;1329;51.384;7.122;2023-08-07T12:50:25;17.60;99.90
2639;DHT22;1329;51.384;7.122;2023-08-07T12:52:52;17.60;99.90
2639;DHT22;1329;51.384;7.122;2023-08-07T12:55:19;17.70;99.90
2639;DHT22;1329;51.384;7.122;2023-08-07T12:57:45;17.90;99.90
2639;DHT22;1329;51.384;7.122;2023-08-07T13:00:14;18.00;99.90
2639;DHT22;1329;51.384;7.122;2023-08-07T13:02:43;18.10;99.90
2639;DHT22;1329;51.384;7.122;2023-08-07T13:05:13;18.20;99.90
2639;DHT22;1329;51.384;7.122;2023-08-07T13:07:41;18.20;99.90
2639;DHT22;1329;51.384;7.122;2023-08-07T13:10:10;18.20;99.90
2639;DHT22;1329;51.384;7.122;2023-08-07T13:12:39;18.30;99.90
2639;DHT22;1329;51.384;7.122;2023-08-07T13:15:10;18.20;99.90
2639;DHT22;1329;51.384;7.122;2023-08-07T13:17:40;18.20;99.90
2639;DHT22;1329;51.384;7.122;2023-08-07T13:20:08;18.10;99.90
2639;DHT22;1329;51.384;7.122;2023-08-07T13:22:38;18.10;99.90
2639;DHT22;1329;51.384;7.122;2023-08-07T13:25:06;18.00;99.90
2639;DHT22;1329;51.384;7.122;2023-08-07T13:27:34;18.00;99.90
2639;DHT22;1329;51.384;7.122;2023-08-07T13:30:02;18.00;99.90
2639;DHT22;1329;51.384;7.122;2023-08-07T13:32:30;18.10;99.90
2639;DHT22;1329;51.384;7.122;2023-08-07T13:34:58;18.10;99.90
2639;DHT22;1329;51.384;7.122;2023-08-07T13:37:24;18.20;99.90
2639;DHT22;1329;51.384;7.122;2023-08-07T13:39:53;18.30;99.90
2639;DHT22;1329;51.384;7.122;2023-08-07T13:42:23;18.40;99.90
2639;DHT22;1329;51.384;7.122;2023-08-07T13:44:51;18.50;99.90
2639;DHT22;1329;51.384;7.122;2023-08-07T13:47:18;18.70;99.90
2639;DHT22;1329;51.384;7.122;2023-08-07T13:49:46;18.90;99.90
2639;DHT22;1329;51.384;7.122;2023-08-07T13:52:13;19.10;99.90
2639;DHT22;1329;51.384;7.122;2023-08-07T13:54:40;19.20;99.90
2639;DHT22;1329;51.384;7.122;2023-08-07T13:57:08;19.30;99.90
2639;DHT22;1329;51.384;7.122;2023-08-07T13:59:35;19.50;99.90
2639;DHT22;1329;51.384;7.122;2023-08-07T14:02:02;19.60;99.90
2639;DHT22;1329;51.384;7.122;2023-08-07T14:04:29;19.60;99.90
2639;DHT22;1329;51.384;7.122;2023-08-07T14:06:57;19.60;99.90
2639;DHT22;1329;51.384;7.122;2023-08-07T14:09:25;19.60;99.90
2639;DHT22;1329;51.384;7.122;2023-08-07T14:11:52;19.60;99.90
2639;DHT22;1329;51.384;7.122;2023-08-07T14:14:20;19.50;99.90
2639;DHT22;1329;51.384;7.122;2023-08-07T14:16:47;19.40;99.90
2639;DHT22;1329;51.384;7.122;2023-08-07T14:19:14;19.40;99.90
2639;DHT22;1329;51.384;7.122;2023-08-07T14:21:41;19.40;99.90
2639;DHT22;1329;51.384;7.122;2023-08-07T14:24:08;19.40;99.90
2639;DHT22;1329;51.384;7.122;2023-08-07T14:26:35;19.60;99.90
2639;DHT22;1329;51.384;7.122;2023-08-07T14:29:02;19.70;99.90
2639;DHT22;1329;51.384;7.122;2023-08-07T14:31:30;19.80;99.90
2639;DHT22;1329;51.384;7.122;2023-08-07T14:33:57;20.00;99.90
2639;DHT22;1329;51.384;7.122;2023-08-07T14:36:24;20.10;99.90
2639;DHT22;1329;51.384;7.122;2023-08-07T14:38:51;20.10;99.90
2639;DHT22;1329;51.384;7.122;2023-08-07T14:41:18;20.10;99.90
2639;DHT22;1329;51.384;7.122;2023-08-07T14:43:45;20.10;99.90
2639;DHT22;1329;51.384;7.122;2023-08-07T14:46:12;20.00;99.90
2639;DHT22;1329;51.384;7.122;2023-08-07T14:48:40;20.00;99.90
2639;DHT22;1329;51.384;7.122;2023-08-07T14:51:07;20.10;99.90
2639;DHT22;1329;51.384;7.122;2023-08-07T14:53:34;20.20;99.90
2639;DHT22;1329;51.384;7.122;2023-08-07T14:56:01;20.30;99.90
2639;DHT22;1329;51.384;7.122;2023-08-07T14:58:28;20.40;99.90
2639;DHT22;1329;51.384;7.122;2023-08-07T15:00:55;20.50;99.90
2639;DHT22;1329;51.384;7.122;2023-08-07T15:03:22;20.60;99.90
2639;DHT22;1329;51.384;7.122;2023-08-07T15:05:50;20.60;99.90
2639;DHT22;1329;51.384;7.122;2023-08-07T15:08:17;20.60;99.90
2639;DHT22;1329;51.384;7.122;2023-08-07T15:10:44;20.60;99.90
2639;DHT22;1329;51.384;7.122;2023-08-07T15:13:11;20.60;99.90
2639;DHT22;1329;51.384;7.122;2023-08-07T15:15:37;20.60;99.90
2639;DHT22;1329;51.384;7.122;2023-08-07T15:18:04;20.60;99.90
2639;DHT22;1329;51.384;7.122;2023-08-07T15:20:34;20.60;99.90
2639;DHT22;1329;51.384;7.122;2023-08-07T15:23:02;20.50;99.90
2639;DHT22;1329;51.384;7.122;2023-08-07T15:25:30;20.50;99.90
2639;DHT22;1329;51.384;7.122;2023-08-07T15:27:56;20.40;99.90
2639;DHT22;1329;51.384;7.122;2023-08-07T15:30:28;20.30;99.90
2639;DHT22;1329;51.384;7.122;2023-08-07T15:32:56;20.20;99.90
2639;DHT22;1329;51.384;7.122;2023-08-07T15:35:23;20.10;99.90
2639;DHT22;1329;51.384;7.122;2023-08-07T15:37:51;20.00;99.90
2639;DHT22;1329;51.384;7.122;2023-08-07T15:40:19;20.00;99.90
2639;DHT22;1329;51.384;7.122;2023-08-07T15:42:46;20.00;99.90
2639;DHT22;1329;51.384;7.122;2023-08-07T15:45:13;20.00;99.90
2639;DHT22;1329;51.384;7.122;2023-08-07T15:47:40;19.90;99.90
2639;DHT22;1329;51.384;7.122;2023-08-07T15:50:08;19.90;99.90
2639;DHT22;1329;51.384;7.122;2023-08-07T15:52:35;19.90;99.90
2639;DHT22;1329;51.384;7.122;2023-08-07T15:55:02;19.80;99.90
2639;DHT22;1329;51.384;7.122;2023-08-07T15:57:31;19.80;99.90
2639;DHT22;1329;51.384;7.122;2023-08-07T15:59:58;19.70;99.90
2639;DHT22;1329;51.384;7.122;2023-08-07T16:02:24;19.80;99.90
2639;DHT22;1329;51.384;7.122;2023-08-07T16:04:51;19.70;99.90
2639;DHT22;1329;51.384;7.122;2023-08-07T16:18:28;19.40;99.90